sensor_id;sensor_type;location;lat;lon;timestamp;P1;durP1;ratioP1;P2;durP2;ratioP2
82304;SDS011;71914;47.382;8.168;2024-01-30T00:00:17;42.90;;;11.00;;
82304;SDS011;71914;47.382;8.168;2024-01-30T00:02:43;22.90;;;9.73;;
82304;SDS011;71914;47.382;8.168;2024-01-30T00:05:10;28.67;;;10.93;;
82304;SDS011;71914;47.382;8.168;2024-01-30T00:07:36;27.35;;;11.70;;
82304;SDS011;71914;47.382;8.168;2024-01-30T00:10:02;23.48;;;10.18;;
82304;SDS011;71914;47.382;8.168;2024-01-30T00:12:28;18.52;;;9.32;;
82304;SDS011;71914;47.382;8.168;2024-01-30T00:14:53;24.60;;;9.52;;
82304;SDS011;71914;47.382;8.168;2024-01-30T00:17:21;22.00;;;10.45;;
82304;SDS011;71914;47.382;8.168;2024-01-30T00:19:46;21.65;;;10.15;;
82304;SDS011;71914;47.382;8.168;2024-01-30T00:22:12;20.88;;;9.18;;
82304;SDS011;71914;47.382;8.168;2024-01-30T00:24:37;21.90;;;9.48;;
82304;SDS011;71914;47.382;8.168;2024-01-30T00:27:03;18.10;;;9.15;;
82304;SDS011;71914;47.382;8.168;2024-01-30T00:29:29;16.05;;;8.70;;
82304;SDS011;71914;47.382;8.168;2024-01-30T00:31:58;20.02;;;9.35;;
82304;SDS011;71914;47.382;8.168;2024-01-30T00:34:25;17.10;;;8.45;;
82304;SDS011;71914;47.382;8.168;2024-01-30T00:36:51;14.50;;;7.85;;
82304;SDS011;71914;47.382;8.168;2024-01-30T00:39:16;16.42;;;9.00;;
82304;SDS011;71914;47.382;8.168;2024-01-30T00:41:44;20.42;;;8.63;;
82304;SDS011;71914;47.382;8.168;2024-01-30T00:44:10;19.02;;;7.90;;
82304;SDS011;71914;47.382;8.168;2024-01-30T00:46:36;16.13;;;7.20;;
82304;SDS011;71914;47.382;8.168;2024-01-30T00:49:01;18.77;;;9.18;;
82304;SDS011;71914;47.382;8.168;2024-01-30T00:51:28;26.65;;;10.10;;
82304;SDS011;71914;47.382;8.168;2024-01-30T00:56:20;17.15;;;9.15;;
82304;SDS011;71914;47.382;8.168;2024-01-30T00:58:46;17.23;;;8.18;;
82304;SDS011;71914;47.382;8.168;2024-01-30T01:01:11;19.10;;;8.65;;
82304;SDS011;71914;47.382;8.168;2024-01-30T01:03:37;20.52;;;10.40;;
82304;SDS011;71914;47.382;8.168;2024-01-30T01:06:03;16.77;;;8.80;;
82304;SDS011;71914;47.382;8.168;2024-01-30T01:08:30;23.85;;;10.45;;
82304;SDS011;71914;47.382;8.168;2024-01-30T01:10:56;28.17;;;10.70;;
82304;SDS011;71914;47.382;8.168;2024-01-30T01:13:22;17.13;;;8.07;;
82304;SDS011;71914;47.382;8.168;2024-01-30T01:15:47;38.58;;;10.85;;
82304;SDS011;71914;47.382;8.168;2024-01-30T01:18:13;24.25;;;9.13;;
82304;SDS011;71914;47.382;8.168;2024-01-30T01:20:38;21.10;;;9.48;;
82304;SDS011;71914;47.382;8.168;2024-01-30T01:23:04;18.15;;;9.27;;
82304;SDS011;71914;47.382;8.168;2024-01-30T01:25:31;21.73;;;9.23;;
82304;SDS011;71914;47.382;8.168;2024-01-30T01:27:56;17.40;;;8.95;;
82304;SDS011;71914;47.382;8.168;2024-01-30T01:30:22;19.88;;;9.30;;
82304;SDS011;71914;47.382;8.168;2024-01-30T01:32:48;21.38;;;9.52;;
82304;SDS011;71914;47.382;8.168;2024-01-30T01:35:20;20.88;;;9.93;;
82304;SDS011;71914;47.382;8.168;2024-01-30T01:37:46;23.77;;;10.60;;
82304;SDS011;71914;47.382;8.168;2024-01-30T01:40:11;24.88;;;11.27;;
82304;SDS011;71914;47.382;8.168;2024-01-30T01:42:38;17.83;;;8.43;;
82304;SDS011;71914;47.382;8.168;2024-01-30T01:45:04;24.52;;;9.93;;
82304;SDS011;71914;47.382;8.168;2024-01-30T01:47:30;17.10;;;8.73;;
82304;SDS011;71914;47.382;8.168;2024-01-30T01:49:56;17.33;;;10.15;;
82304;SDS011;71914;47.382;8.168;2024-01-30T01:52:22;19.67;;;8.90;;
82304;SDS011;71914;47.382;8.168;2024-01-30T01:54:48;17.52;;;9.30;;
82304;SDS011;71914;47.382;8.168;2024-01-30T01:57:13;19.42;;;9.05;;
82304;SDS011;71914;47.382;8.168;2024-01-30T01:59:40;22.95;;;9.55;;
82304;SDS011;71914;47.382;8.168;2024-01-30T02:02:06;18.98;;;8.95;;
82304;SDS011;71914;47.382;8.168;2024-01-30T02:04:36;20.15;;;9.95;;
82304;SDS011;71914;47.382;8.168;2024-01-30T02:07:02;27.80;;;10.73;;
82304;SDS011;71914;47.382;8.168;2024-01-30T02:09:27;19.75;;;9.98;;
82304;SDS011;71914;47.382;8.168;2024-01-30T02:11:53;21.35;;;9.10;;
82304;SDS011;71914;47.382;8.168;2024-01-30T02:14:19;16.17;;;8.77;;
82304;SDS011;71914;47.382;8.168;2024-01-30T02:16:46;21.90;;;9.18;;
82304;SDS011;71914;47.382;8.168;2024-01-30T02:19:12;19.73;;;9.20;;
82304;SDS011;71914;47.382;8.168;2024-01-30T02:21:39;14.32;;;8.13;;
82304;SDS011;71914;47.382;8.168;2024-01-30T02:24:05;15.80;;;7.82;;
82304;SDS011;71914;47.382;8.168;2024-01-30T02:26:31;20.15;;;8.65;;
82304;SDS011;71914;47.382;8.168;2024-01-30T02:28:56;12.57;;;7.88;;
82304;SDS011;71914;47.382;8.168;2024-01-30T02:31:22;13.85;;;7.63;;
82304;SDS011;71914;47.382;8.168;2024-01-30T02:33:49;15.07;;;7.03;;
82304;SDS011;71914;47.382;8.168;2024-01-30T02:36:14;15.98;;;7.80;;
82304;SDS011;71914;47.382;8.168;2024-01-30T02:38:42;15.50;;;8.23;;
82304;SDS011;71914;47.382;8.168;2024-01-30T02:41:07;13.98;;;8.05;;
82304;SDS011;71914;47.382;8.168;2024-01-30T02:43:33;10.15;;;6.55;;
82304;SDS011;71914;47.382;8.168;2024-01-30T02:45:58;10.57;;;5.85;;
82304;SDS011;71914;47.382;8.168;2024-01-30T02:48:25;15.07;;;6.80;;
82304;SDS011;71914;47.382;8.168;2024-01-30T02:50:51;17.70;;;8.80;;
82304;SDS011;71914;47.382;8.168;2024-01-30T02:53:17;16.65;;;7.97;;
82304;SDS011;71914;47.382;8.168;2024-01-30T02:55:44;20.95;;;9.93;;
82304;SDS011;71914;47.382;8.168;2024-01-30T02:58:10;21.27;;;10.32;;
82304;SDS011;71914;47.382;8.168;2024-01-30T03:00:35;15.98;;;8.70;;
82304;SDS011;71914;47.382;8.168;2024-01-30T03:03:01;18.48;;;8.77;;
82304;SDS011;71914;47.382;8.168;2024-01-30T03:05:27;17.48;;;9.38;;
82304;SDS011;71914;47.382;8.168;2024-01-30T03:07:52;17.17;;;8.63;;
82304;SDS011;71914;47.382;8.168;2024-01-30T03:10:18;17.15;;;8.13;;
82304;SDS011;71914;47.382;8.168;2024-01-30T03:12:45;21.23;;;8.63;;
82304;SDS011;71914;47.382;8.168;2024-01-30T03:15:10;14.35;;;7.97;;
82304;SDS011;71914;47.382;8.168;2024-01-30T03:17:36;14.55;;;8.32;;
82304;SDS011;71914;47.382;8.168;2024-01-30T03:20:02;15.02;;;8.63;;
82304;SDS011;71914;47.382;8.168;2024-01-30T03:22:28;21.63;;;9.10;;
82304;SDS011;71914;47.382;8.168;2024-01-30T03:24:54;15.93;;;7.88;;
82304;SDS011;71914;47.382;8.168;2024-01-30T03:27:20;15.77;;;7.95;;
82304;SDS011;71914;47.382;8.168;2024-01-30T03:29:47;17.55;;;8.30;;
82304;SDS011;71914;47.382;8.168;2024-01-30T03:32:12;17.30;;;8.07;;
82304;SDS011;71914;47.382;8.168;2024-01-30T03:34:38;16.65;;;7.90;;
82304;SDS011;71914;47.382;8.168;2024-01-30T03:37:04;15.73;;;8.02;;
82304;SDS011;71914;47.382;8.168;2024-01-30T03:39:30;26.63;;;8.25;;
82304;SDS011;71914;47.382;8.168;2024-01-30T03:41:55;14.95;;;7.60;;
82304;SDS011;71914;47.382;8.168;2024-01-30T03:44:21;15.73;;;8.82;;
82304;SDS011;71914;47.382;8.168;2024-01-30T03:46:48;17.83;;;7.60;;
82304;SDS011;71914;47.382;8.168;2024-01-30T03:49:14;17.75;;;7.88;;
82304;SDS011;71914;47.382;8.168;2024-01-30T03:51:39;19.65;;;8.25;;
82304;SDS011;71914;47.382;8.168;2024-01-30T03:54:05;25.30;;;7.70;;
82304;SDS011;71914;47.382;8.168;2024-01-30T03:56:31;13.10;;;6.80;;
82304;SDS011;71914;47.382;8.168;2024-01-30T03:58:57;12.95;;;6.47;;
82304;SDS011;71914;47.382;8.168;2024-01-30T04:01:23;14.80;;;6.55;;
82304;SDS011;71914;47.382;8.168;2024-01-30T04:03:50;22.42;;;8.27;;
82304;SDS011;71914;47.382;8.168;2024-01-30T04:06:16;18.02;;;9.38;;
82304;SDS011;71914;47.382;8.168;2024-01-30T04:08:41;19.02;;;9.52;;
82304;SDS011;71914;47.382;8.168;2024-01-30T04:11:07;21.70;;;10.82;;
82304;SDS011;71914;47.382;8.168;2024-01-30T04:13:33;21.23;;;10.68;;
82304;SDS011;71914;47.382;8.168;2024-01-30T04:15:59;26.17;;;10.23;;
82304;SDS011;71914;47.382;8.168;2024-01-30T04:18:26;20.30;;;11.00;;
82304;SDS011;71914;47.382;8.168;2024-01-30T04:20:53;21.40;;;9.57;;
82304;SDS011;71914;47.382;8.168;2024-01-30T04:23:19;18.02;;;9.43;;
82304;SDS011;71914;47.382;8.168;2024-01-30T04:25:45;20.95;;;10.13;;
82304;SDS011;71914;47.382;8.168;2024-01-30T04:28:10;16.65;;;8.73;;
82304;SDS011;71914;47.382;8.168;2024-01-30T04:30:39;18.40;;;9.48;;
82304;SDS011;71914;47.382;8.168;2024-01-30T04:33:04;28.73;;;9.90;;
82304;SDS011;71914;47.382;8.168;2024-01-30T04:35:30;13.40;;;7.18;;
82304;SDS011;71914;47.382;8.168;2024-01-30T04:37:57;14.48;;;6.38;;
82304;SDS011;71914;47.382;8.168;2024-01-30T04:40:23;15.27;;;6.95;;
82304;SDS011;71914;47.382;8.168;2024-01-30T04:42:49;14.88;;;8.07;;
82304;SDS011;71914;47.382;8.168;2024-01-30T04:45:14;25.00;;;9.70;;
82304;SDS011;71914;47.382;8.168;2024-01-30T04:47:40;16.92;;;8.13;;
82304;SDS011;71914;47.382;8.168;2024-01-30T04:50:06;26.83;;;10.35;;
82304;SDS011;71914;47.382;8.168;2024-01-30T04:52:33;18.83;;;9.35;;
82304;SDS011;71914;47.382;8.168;2024-01-30T04:55:01;21.98;;;10.15;;
82304;SDS011;71914;47.382;8.168;2024-01-30T04:57:26;25.92;;;10.25;;
82304;SDS011;71914;47.382;8.168;2024-01-30T04:59:52;20.45;;;9.88;;
82304;SDS011;71914;47.382;8.168;2024-01-30T05:02:18;14.27;;;6.40;;
82304;SDS011;71914;47.382;8.168;2024-01-30T05:04:44;17.65;;;8.63;;
82304;SDS011;71914;47.382;8.168;2024-01-30T05:07:09;16.48;;;8.18;;
82304;SDS011;71914;47.382;8.168;2024-01-30T05:09:35;16.13;;;8.32;;
82304;SDS011;71914;47.382;8.168;2024-01-30T05:12:02;10.20;;;6.95;;
82304;SDS011;71914;47.382;8.168;2024-01-30T05:14:28;12.32;;;7.47;;
82304;SDS011;71914;47.382;8.168;2024-01-30T05:16:53;9.10;;;6.18;;
82304;SDS011;71914;47.382;8.168;2024-01-30T05:19:19;20.27;;;9.20;;
82304;SDS011;71914;47.382;8.168;2024-01-30T05:21:46;22.77;;;10.50;;
82304;SDS011;71914;47.382;8.168;2024-01-30T05:24:12;24.40;;;10.43;;
82304;SDS011;71914;47.382;8.168;2024-01-30T05:26:37;21.10;;;10.27;;
82304;SDS011;71914;47.382;8.168;2024-01-30T05:29:04;13.98;;;7.00;;
82304;SDS011;71914;47.382;8.168;2024-01-30T05:31:30;9.40;;;6.22;;
82304;SDS011;71914;47.382;8.168;2024-01-30T05:33:56;11.35;;;6.72;;
82304;SDS011;71914;47.382;8.168;2024-01-30T05:36:21;11.65;;;5.53;;
82304;SDS011;71914;47.382;8.168;2024-01-30T05:38:47;17.63;;;9.70;;
82304;SDS011;71914;47.382;8.168;2024-01-30T05:41:13;19.25;;;9.40;;
82304;SDS011;71914;47.382;8.168;2024-01-30T05:43:38;25.85;;;11.40;;
82304;SDS011;71914;47.382;8.168;2024-01-30T05:46:05;25.88;;;12.48;;
82304;SDS011;71914;47.382;8.168;2024-01-30T05:48:31;33.63;;;14.15;;
82304;SDS011;71914;47.382;8.168;2024-01-30T05:50:57;30.35;;;12.63;;
82304;SDS011;71914;47.382;8.168;2024-01-30T05:53:26;26.67;;;11.60;;
82304;SDS011;71914;47.382;8.168;2024-01-30T05:55:52;19.10;;;9.82;;
82304;SDS011;71914;47.382;8.168;2024-01-30T05:58:17;20.67;;;10.95;;
82304;SDS011;71914;47.382;8.168;2024-01-30T06:00:43;17.33;;;9.43;;
82304;SDS011;71914;47.382;8.168;2024-01-30T06:03:10;22.55;;;11.55;;
82304;SDS011;71914;47.382;8.168;2024-01-30T06:05:36;18.75;;;9.18;;
82304;SDS011;71914;47.382;8.168;2024-01-30T06:08:01;20.80;;;10.55;;
82304;SDS011;71914;47.382;8.168;2024-01-30T06:10:27;13.82;;;7.88;;
82304;SDS011;71914;47.382;8.168;2024-01-30T06:12:53;16.13;;;7.35;;
82304;SDS011;71914;47.382;8.168;2024-01-30T06:15:18;11.07;;;7.20;;
82304;SDS011;71914;47.382;8.168;2024-01-30T06:17:44;21.10;;;8.52;;
82304;SDS011;71914;47.382;8.168;2024-01-30T06:20:11;11.65;;;6.78;;
82304;SDS011;71914;47.382;8.168;2024-01-30T06:22:37;13.45;;;7.72;;
82304;SDS011;71914;47.382;8.168;2024-01-30T06:25:03;13.90;;;6.78;;
82304;SDS011;71914;47.382;8.168;2024-01-30T06:27:29;19.60;;;10.35;;
82304;SDS011;71914;47.382;8.168;2024-01-30T06:29:54;14.77;;;7.88;;
82304;SDS011;71914;47.382;8.168;2024-01-30T06:32:20;18.20;;;8.07;;
82304;SDS011;71914;47.382;8.168;2024-01-30T06:34:46;24.38;;;10.80;;
82304;SDS011;71914;47.382;8.168;2024-01-30T06:37:13;19.70;;;9.68;;
82304;SDS011;71914;47.382;8.168;2024-01-30T06:39:38;18.33;;;9.85;;
82304;SDS011;71914;47.382;8.168;2024-01-30T06:42:04;25.70;;;10.13;;
82304;SDS011;71914;47.382;8.168;2024-01-30T06:44:30;19.55;;;9.43;;
82304;SDS011;71914;47.382;8.168;2024-01-30T06:46:55;21.15;;;10.50;;
82304;SDS011;71914;47.382;8.168;2024-01-30T06:49:21;19.65;;;9.57;;
82304;SDS011;71914;47.382;8.168;2024-01-30T06:51:47;23.02;;;10.75;;
82304;SDS011;71914;47.382;8.168;2024-01-30T06:54:14;23.38;;;11.27;;
82304;SDS011;71914;47.382;8.168;2024-01-30T06:56:40;32.50;;;13.60;;
82304;SDS011;71914;47.382;8.168;2024-01-30T06:59:06;25.13;;;11.02;;
82304;SDS011;71914;47.382;8.168;2024-01-30T07:01:31;21.98;;;10.77;;
82304;SDS011;71914;47.382;8.168;2024-01-30T07:03:57;17.52;;;10.25;;
82304;SDS011;71914;47.382;8.168;2024-01-30T07:06:23;25.65;;;9.63;;
82304;SDS011;71914;47.382;8.168;2024-01-30T07:08:49;25.05;;;9.65;;
82304;SDS011;71914;47.382;8.168;2024-01-30T07:11:19;26.88;;;9.77;;
82304;SDS011;71914;47.382;8.168;2024-01-30T07:13:46;22.98;;;9.77;;
82304;SDS011;71914;47.382;8.168;2024-01-30T07:16:12;19.00;;;8.90;;
82304;SDS011;71914;47.382;8.168;2024-01-30T07:18:38;14.48;;;7.82;;
82304;SDS011;71914;47.382;8.168;2024-01-30T07:21:04;23.02;;;9.20;;
82304;SDS011;71914;47.382;8.168;2024-01-30T07:23:29;22.60;;;9.52;;
82304;SDS011;71914;47.382;8.168;2024-01-30T07:25:55;26.27;;;10.88;;
82304;SDS011;71914;47.382;8.168;2024-01-30T07:28:22;13.85;;;7.38;;
82304;SDS011;71914;47.382;8.168;2024-01-30T07:30:48;14.27;;;7.35;;
82304;SDS011;71914;47.382;8.168;2024-01-30T07:33:14;28.77;;;9.82;;
82304;SDS011;71914;47.382;8.168;2024-01-30T07:35:39;50.17;;;12.52;;
82304;SDS011;71914;47.382;8.168;2024-01-30T07:38:05;49.20;;;13.18;;
82304;SDS011;71914;47.382;8.168;2024-01-30T07:40:31;34.05;;;13.55;;
82304;SDS011;71914;47.382;8.168;2024-01-30T07:42:58;27.52;;;11.48;;
82304;SDS011;71914;47.382;8.168;2024-01-30T07:45:25;15.07;;;7.65;;
82304;SDS011;71914;47.382;8.168;2024-01-30T07:47:52;9.95;;;6.65;;
82304;SDS011;71914;47.382;8.168;2024-01-30T07:50:18;11.20;;;7.57;;
82304;SDS011;71914;47.382;8.168;2024-01-30T07:52:44;15.10;;;7.15;;
82304;SDS011;71914;47.382;8.168;2024-01-30T07:58:51;15.77;;;8.13;;
82304;SDS011;71914;47.382;8.168;2024-01-30T08:01:18;16.92;;;7.50;;
82304;SDS011;71914;47.382;8.168;2024-01-30T08:03:44;35.65;;;15.40;;
82304;SDS011;71914;47.382;8.168;2024-01-30T08:06:09;36.00;;;14.27;;
82304;SDS011;71914;47.382;8.168;2024-01-30T08:08:35;30.38;;;13.85;;
82304;SDS011;71914;47.382;8.168;2024-01-30T08:11:01;36.40;;;17.45;;
82304;SDS011;71914;47.382;8.168;2024-01-30T08:13:27;26.50;;;13.52;;
82304;SDS011;71914;47.382;8.168;2024-01-30T08:15:52;17.27;;;10.45;;
82304;SDS011;71914;47.382;8.168;2024-01-30T08:18:19;19.92;;;9.98;;
82304;SDS011;71914;47.382;8.168;2024-01-30T08:20:45;14.70;;;10.32;;
82304;SDS011;71914;47.382;8.168;2024-01-30T08:23:11;28.08;;;12.05;;
82304;SDS011;71914;47.382;8.168;2024-01-30T08:25:36;33.90;;;11.93;;
82304;SDS011;71914;47.382;8.168;2024-01-30T08:28:02;16.65;;;8.85;;
82304;SDS011;71914;47.382;8.168;2024-01-30T08:30:29;22.55;;;11.50;;
82304;SDS011;71914;47.382;8.168;2024-01-30T08:32:54;24.00;;;10.95;;
82304;SDS011;71914;47.382;8.168;2024-01-30T08:35:21;14.85;;;9.48;;
82304;SDS011;71914;47.382;8.168;2024-01-30T08:37:47;28.25;;;12.23;;
82304;SDS011;71914;47.382;8.168;2024-01-30T08:40:13;49.55;;;17.00;;
82304;SDS011;71914;47.382;8.168;2024-01-30T08:42:38;46.42;;;16.98;;
82304;SDS011;71914;47.382;8.168;2024-01-30T08:45:04;31.67;;;14.13;;
82304;SDS011;71914;47.382;8.168;2024-01-30T08:47:30;26.42;;;12.25;;
82304;SDS011;71914;47.382;8.168;2024-01-30T08:49:56;20.48;;;11.57;;
82304;SDS011;71914;47.382;8.168;2024-01-30T08:52:23;17.58;;;9.43;;
82304;SDS011;71914;47.382;8.168;2024-01-30T08:54:49;18.20;;;8.88;;
82304;SDS011;71914;47.382;8.168;2024-01-30T08:57:14;25.73;;;10.90;;
82304;SDS011;71914;47.382;8.168;2024-01-30T08:59:40;20.00;;;9.30;;
82304;SDS011;71914;47.382;8.168;2024-01-30T09:02:05;17.52;;;9.25;;
82304;SDS011;71914;47.382;8.168;2024-01-30T09:04:31;21.42;;;12.13;;
82304;SDS011;71914;47.382;8.168;2024-01-30T09:06:57;20.75;;;11.98;;
82304;SDS011;71914;47.382;8.168;2024-01-30T09:09:24;33.03;;;14.52;;
82304;SDS011;71914;47.382;8.168;2024-01-30T09:11:49;38.83;;;15.95;;
82304;SDS011;71914;47.382;8.168;2024-01-30T09:14:15;34.75;;;17.52;;
82304;SDS011;71914;47.382;8.168;2024-01-30T09:16:41;13.82;;;8.45;;
82304;SDS011;71914;47.382;8.168;2024-01-30T09:19:06;18.02;;;10.77;;
82304;SDS011;71914;47.382;8.168;2024-01-30T09:21:32;20.83;;;9.68;;
82304;SDS011;71914;47.382;8.168;2024-01-30T09:24:01;25.75;;;14.43;;
82304;SDS011;71914;47.382;8.168;2024-01-30T09:26:30;15.10;;;9.43;;
82304;SDS011;71914;47.382;8.168;2024-01-30T09:28:56;22.10;;;13.65;;
82304;SDS011;71914;47.382;8.168;2024-01-30T09:31:21;22.90;;;11.77;;
82304;SDS011;71914;47.382;8.168;2024-01-30T09:33:47;20.73;;;11.55;;
82304;SDS011;71914;47.382;8.168;2024-01-30T09:36:14;21.38;;;11.40;;
82304;SDS011;71914;47.382;8.168;2024-01-30T09:38:44;19.90;;;11.15;;
82304;SDS011;71914;47.382;8.168;2024-01-30T09:41:10;25.75;;;10.00;;
82304;SDS011;71914;47.382;8.168;2024-01-30T09:43:38;17.15;;;10.27;;
82304;SDS011;71914;47.382;8.168;2024-01-30T09:46:07;16.80;;;9.77;;
82304;SDS011;71914;47.382;8.168;2024-01-30T09:48:38;20.20;;;10.65;;
82304;SDS011;71914;47.382;8.168;2024-01-30T09:51:06;23.48;;;12.32;;
82304;SDS011;71914;47.382;8.168;2024-01-30T09:53:32;20.15;;;11.10;;
82304;SDS011;71914;47.382;8.168;2024-01-30T09:55:58;19.58;;;11.55;;
82304;SDS011;71914;47.382;8.168;2024-01-30T09:58:24;14.07;;;8.85;;
82304;SDS011;71914;47.382;8.168;2024-01-30T10:00:51;15.30;;;9.90;;
82304;SDS011;71914;47.382;8.168;2024-01-30T10:03:18;21.38;;;10.93;;
82304;SDS011;71914;47.382;8.168;2024-01-30T10:05:44;13.95;;;7.35;;
82304;SDS011;71914;47.382;8.168;2024-01-30T10:08:17;11.82;;;7.93;;
82304;SDS011;71914;47.382;8.168;2024-01-30T10:10:45;17.52;;;10.35;;
82304;SDS011;71914;47.382;8.168;2024-01-30T10:15:37;10.57;;;6.80;;
82304;SDS011;71914;47.382;8.168;2024-01-30T10:18:05;12.18;;;6.97;;
82304;SDS011;71914;47.382;8.168;2024-01-30T10:20:31;15.32;;;8.80;;
82304;SDS011;71914;47.382;8.168;2024-01-30T10:22:57;16.27;;;10.02;;
82304;SDS011;71914;47.382;8.168;2024-01-30T10:25:23;15.85;;;9.50;;
82304;SDS011;71914;47.382;8.168;2024-01-30T10:27:52;18.25;;;10.13;;
82304;SDS011;71914;47.382;8.168;2024-01-30T10:30:19;12.57;;;7.97;;
82304;SDS011;71914;47.382;8.168;2024-01-30T10:32:44;12.82;;;8.35;;
82304;SDS011;71914;47.382;8.168;2024-01-30T10:35:11;17.25;;;8.82;;
82304;SDS011;71914;47.382;8.168;2024-01-30T10:37:37;20.67;;;11.95;;
82304;SDS011;71914;47.382;8.168;2024-01-30T10:40:03;13.95;;;9.30;;
82304;SDS011;71914;47.382;8.168;2024-01-30T10:42:31;16.58;;;6.97;;
82304;SDS011;71914;47.382;8.168;2024-01-30T10:44:59;15.32;;;8.80;;
82304;SDS011;71914;47.382;8.168;2024-01-30T10:47:28;14.73;;;9.13;;
82304;SDS011;71914;47.382;8.168;2024-01-30T10:49:54;10.85;;;6.18;;
82304;SDS011;71914;47.382;8.168;2024-01-30T10:52:22;12.07;;;7.43;;
82304;SDS011;71914;47.382;8.168;2024-01-30T10:54:53;19.42;;;9.25;;
82304;SDS011;71914;47.382;8.168;2024-01-30T10:59:46;14.13;;;8.43;;
82304;SDS011;71914;47.382;8.168;2024-01-30T11:02:13;15.10;;;7.35;;
82304;SDS011;71914;47.382;8.168;2024-01-30T11:04:40;9.10;;;6.50;;
82304;SDS011;71914;47.382;8.168;2024-01-30T11:07:16;15.80;;;9.15;;
82304;SDS011;71914;47.382;8.168;2024-01-30T11:09:49;14.48;;;6.93;;
82304;SDS011;71914;47.382;8.168;2024-01-30T11:12:16;12.48;;;6.75;;
82304;SDS011;71914;47.382;8.168;2024-01-30T11:14:41;16.92;;;9.27;;
82304;SDS011;71914;47.382;8.168;2024-01-30T11:17:09;14.15;;;8.60;;
82304;SDS011;71914;47.382;8.168;2024-01-30T11:19:35;17.90;;;9.10;;
82304;SDS011;71914;47.382;8.168;2024-01-30T11:22:00;17.38;;;9.52;;
82304;SDS011;71914;47.382;8.168;2024-01-30T11:24:27;13.55;;;8.50;;
82304;SDS011;71914;47.382;8.168;2024-01-30T11:26:56;16.55;;;9.02;;
82304;SDS011;71914;47.382;8.168;2024-01-30T11:29:24;17.20;;;9.57;;
82304;SDS011;71914;47.382;8.168;2024-01-30T11:31:52;20.05;;;9.00;;
82304;SDS011;71914;47.382;8.168;2024-01-30T11:34:19;17.25;;;9.18;;
82304;SDS011;71914;47.382;8.168;2024-01-30T11:39:14;17.63;;;9.23;;
82304;SDS011;71914;47.382;8.168;2024-01-30T11:41:42;13.48;;;7.20;;
82304;SDS011;71914;47.382;8.168;2024-01-30T11:44:12;15.80;;;9.68;;
82304;SDS011;71914;47.382;8.168;2024-01-30T11:46:37;14.90;;;8.80;;
82304;SDS011;71914;47.382;8.168;2024-01-30T11:49:03;18.98;;;9.07;;
82304;SDS011;71914;47.382;8.168;2024-01-30T11:51:30;12.73;;;7.63;;
82304;SDS011;71914;47.382;8.168;2024-01-30T11:53:56;16.52;;;7.15;;
82304;SDS011;71914;47.382;8.168;2024-01-30T11:56:23;17.23;;;8.25;;
82304;SDS011;71914;47.382;8.168;2024-01-30T11:58:50;13.88;;;7.18;;
82304;SDS011;71914;47.382;8.168;2024-01-30T12:01:18;11.70;;;7.05;;
82304;SDS011;71914;47.382;8.168;2024-01-30T12:06:15;12.90;;;6.97;;
82304;SDS011;71914;47.382;8.168;2024-01-30T12:08:40;11.48;;;7.40;;
82304;SDS011;71914;47.382;8.168;2024-01-30T12:11:06;10.98;;;6.03;;
82304;SDS011;71914;47.382;8.168;2024-01-30T12:13:32;9.70;;;7.03;;
82304;SDS011;71914;47.382;8.168;2024-01-30T12:15:58;13.55;;;8.30;;
82304;SDS011;71914;47.382;8.168;2024-01-30T12:18:26;12.95;;;7.75;;
82304;SDS011;71914;47.382;8.168;2024-01-30T12:20:57;15.38;;;8.02;;
82304;SDS011;71914;47.382;8.168;2024-01-30T12:23:24;14.48;;;8.35;;
82304;SDS011;71914;47.382;8.168;2024-01-30T12:25:51;16.60;;;8.85;;
82304;SDS011;71914;47.382;8.168;2024-01-30T12:28:16;17.60;;;8.63;;
82304;SDS011;71914;47.382;8.168;2024-01-30T12:30:42;19.15;;;10.00;;
82304;SDS011;71914;47.382;8.168;2024-01-30T12:33:08;14.15;;;8.40;;
82304;SDS011;71914;47.382;8.168;2024-01-30T12:35:36;16.67;;;8.32;;
82304;SDS011;71914;47.382;8.168;2024-01-30T12:40:27;15.15;;;8.45;;
82304;SDS011;71914;47.382;8.168;2024-01-30T12:42:53;14.82;;;9.50;;
82304;SDS011;71914;47.382;8.168;2024-01-30T12:45:19;15.07;;;8.43;;
82304;SDS011;71914;47.382;8.168;2024-01-30T12:47:48;14.45;;;8.30;;
82304;SDS011;71914;47.382;8.168;2024-01-30T12:50:13;12.13;;;7.25;;
82304;SDS011;71914;47.382;8.168;2024-01-30T12:52:42;15.82;;;8.18;;
82304;SDS011;71914;47.382;8.168;2024-01-30T12:55:08;13.95;;;7.97;;
82304;SDS011;71914;47.382;8.168;2024-01-30T12:57:34;13.27;;;7.28;;
82304;SDS011;71914;47.382;8.168;2024-01-30T12:59:59;12.88;;;8.02;;
82304;SDS011;71914;47.382;8.168;2024-01-30T13:02:25;14.48;;;7.57;;
82304;SDS011;71914;47.382;8.168;2024-01-30T13:04:55;17.67;;;9.70;;
82304;SDS011;71914;47.382;8.168;2024-01-30T13:07:20;14.18;;;8.93;;
82304;SDS011;71914;47.382;8.168;2024-01-30T13:09:47;12.52;;;7.63;;
82304;SDS011;71914;47.382;8.168;2024-01-30T13:17:04;15.13;;;8.10;;
82304;SDS011;71914;47.382;8.168;2024-01-30T13:19:29;14.43;;;8.32;;
82304;SDS011;71914;47.382;8.168;2024-01-30T13:21:55;14.93;;;8.68;;
82304;SDS011;71914;47.382;8.168;2024-01-30T13:24:21;16.33;;;9.10;;
82304;SDS011;71914;47.382;8.168;2024-01-30T13:26:48;14.70;;;8.88;;
82304;SDS011;71914;47.382;8.168;2024-01-30T13:29:14;14.63;;;8.40;;
82304;SDS011;71914;47.382;8.168;2024-01-30T13:31:39;14.57;;;9.18;;
82304;SDS011;71914;47.382;8.168;2024-01-30T13:34:06;15.57;;;8.88;;
82304;SDS011;71914;47.382;8.168;2024-01-30T13:36:34;14.35;;;9.15;;
82304;SDS011;71914;47.382;8.168;2024-01-30T13:39:00;17.80;;;8.90;;
82304;SDS011;71914;47.382;8.168;2024-01-30T13:41:25;11.95;;;7.18;;
82304;SDS011;71914;47.382;8.168;2024-01-30T13:43:52;14.55;;;9.48;;
82304;SDS011;71914;47.382;8.168;2024-01-30T13:46:19;16.23;;;8.48;;
82304;SDS011;71914;47.382;8.168;2024-01-30T13:48:44;13.23;;;8.52;;
82304;SDS011;71914;47.382;8.168;2024-01-30T13:51:10;18.83;;;8.90;;
82304;SDS011;71914;47.382;8.168;2024-01-30T13:53:38;13.23;;;8.05;;
82304;SDS011;71914;47.382;8.168;2024-01-30T13:56:03;17.25;;;9.75;;
82304;SDS011;71914;47.382;8.168;2024-01-30T13:58:29;12.48;;;8.55;;
82304;SDS011;71914;47.382;8.168;2024-01-30T14:00:57;15.68;;;9.52;;
82304;SDS011;71914;47.382;8.168;2024-01-30T14:03:22;19.50;;;9.73;;
82304;SDS011;71914;47.382;8.168;2024-01-30T14:05:48;14.05;;;8.60;;
82304;SDS011;71914;47.382;8.168;2024-01-30T14:08:14;16.17;;;8.88;;
82304;SDS011;71914;47.382;8.168;2024-01-30T14:10:40;15.02;;;7.45;;
82304;SDS011;71914;47.382;8.168;2024-01-30T14:13:06;13.38;;;7.90;;
82304;SDS011;71914;47.382;8.168;2024-01-30T14:15:31;18.67;;;8.65;;
82304;SDS011;71914;47.382;8.168;2024-01-30T14:17:58;25.35;;;11.95;;
82304;SDS011;71914;47.382;8.168;2024-01-30T14:20:24;15.60;;;9.63;;
82304;SDS011;71914;47.382;8.168;2024-01-30T14:22:49;14.88;;;8.55;;
82304;SDS011;71914;47.382;8.168;2024-01-30T14:25:15;13.80;;;7.57;;
82304;SDS011;71914;47.382;8.168;2024-01-30T14:27:42;14.77;;;9.27;;
82304;SDS011;71914;47.382;8.168;2024-01-30T14:30:08;13.20;;;7.90;;
82304;SDS011;71914;47.382;8.168;2024-01-30T14:32:36;11.60;;;7.47;;
82304;SDS011;71914;47.382;8.168;2024-01-30T14:35:05;13.73;;;8.68;;
82304;SDS011;71914;47.382;8.168;2024-01-30T14:37:31;18.48;;;8.55;;
82304;SDS011;71914;47.382;8.168;2024-01-30T14:39:56;16.10;;;9.88;;
82304;SDS011;71914;47.382;8.168;2024-01-30T14:42:22;12.82;;;8.68;;
82304;SDS011;71914;47.382;8.168;2024-01-30T14:44:48;17.00;;;8.23;;
82304;SDS011;71914;47.382;8.168;2024-01-30T14:47:14;15.20;;;8.27;;